createdAt,value
2019-02-26T00:02:11.047Z,16.63
2019-02-26T00:04:42.821Z,13.07
2019-02-26T00:07:18.245Z,10.70
2019-02-26T00:09:51.308Z,10.67
2019-02-26T00:12:26.273Z,8.80
2019-02-26T00:14:59.672Z,9.73
2019-02-26T00:17:36.161Z,12.30
2019-02-26T00:20:10.239Z,10.00
2019-02-26T00:22:42.204Z,9.23
2019-02-26T00:25:15.322Z,9.27
2019-02-26T00:28:10.863Z,6.50
2019-02-26T00:30:48.149Z,8.13
2019-02-26T00:33:25.204Z,8.80
2019-02-26T00:36:06.639Z,10.13
2019-02-26T00:41:58.219Z,16.50
2019-02-26T00:44:38.254Z,12.70
2019-02-26T00:47:14.392Z,10.37
2019-02-26T00:49:51.007Z,11.20
2019-02-26T00:52:28.167Z,16.50
2019-02-26T00:55:04.906Z,15.43
2019-02-26T00:57:40.492Z,13.60
2019-02-26T01:00:24.690Z,10.03
2019-02-26T01:03:09.141Z,9.53
2019-02-26T01:05:45.770Z,10.83
2019-02-26T01:08:24.986Z,10.70
2019-02-26T01:11:08.432Z,11.60
2019-02-26T01:13:52.745Z,9.37
2019-02-26T01:16:31.787Z,12.00
2019-02-26T01:19:08.537Z,10.87
2019-02-26T01:22:13.937Z,9.77
2019-02-26T01:24:49.857Z,13.37
2019-02-26T01:27:35.169Z,14.80
2019-02-26T01:30:09.677Z,16.40
2019-02-26T01:32:45.188Z,13.50
2019-02-26T01:35:19.542Z,11.37
2019-02-26T01:37:52.046Z,11.27
2019-02-26T01:40:25.978Z,9.10
2019-02-26T01:42:58.527Z,7.47
2019-02-26T01:45:33.675Z,7.07
2019-02-26T01:48:11.436Z,7.23
2019-02-26T01:50:49.383Z,10.20
2019-02-26T01:53:27.226Z,6.67
2019-02-26T01:55:58.418Z,11.23
2019-02-26T01:58:33.415Z,11.50
2019-02-26T02:01:14.053Z,14.87
2019-02-26T02:03:48.807Z,12.83
2019-02-26T02:06:22.008Z,8.63
2019-02-26T02:08:55.967Z,10.13
2019-02-26T02:11:31.189Z,19.53
2019-02-26T02:14:05.742Z,15.33
2019-02-26T02:16:35.645Z,11.20
2019-02-26T02:19:08.450Z,8.60
2019-02-26T02:21:41.549Z,10.70
2019-02-26T02:24:15.573Z,15.17
2019-02-26T02:26:52.635Z,10.83
2019-02-26T02:29:24.527Z,8.53
2019-02-26T02:31:59.441Z,9.07
2019-02-26T02:34:32.833Z,8.53
2019-02-26T02:37:04.955Z,6.97
2019-02-26T02:39:36.673Z,7.50
2019-02-26T02:42:10.714Z,11.60
2019-02-26T02:44:44.833Z,22.97
2019-02-26T02:47:17.135Z,17.93
2019-02-26T02:49:48.747Z,12.97
2019-02-26T02:52:24.254Z,15.13
2019-02-26T02:54:56.994Z,12.30
2019-02-26T02:57:30.003Z,11.43
2019-02-26T03:00:02.953Z,12.07
2019-02-26T03:02:40.534Z,11.07
2019-02-26T03:05:10.201Z,10.57
2019-02-26T03:07:42.875Z,11.77
2019-02-26T03:10:15.741Z,9.10
2019-02-26T03:12:52.197Z,10.87
2019-02-26T03:15:23.979Z,8.40
2019-02-26T03:17:54.586Z,11.30
2019-02-26T03:20:28.646Z,15.47
2019-02-26T03:23:04.588Z,11.47
2019-02-26T03:25:36.958Z,10.77
2019-02-26T03:28:09.097Z,12.07
2019-02-26T03:30:44.130Z,12.30
2019-02-26T03:33:15.172Z,11.30
2019-02-26T03:35:46.809Z,11.30
2019-02-26T03:38:20.631Z,13.90
2019-02-26T03:40:52.788Z,10.67
2019-02-26T03:43:28.650Z,11.83
2019-02-26T03:46:00.053Z,10.30
2019-02-26T03:48:31.678Z,9.37
2019-02-26T03:51:03.615Z,10.50
2019-02-26T03:53:36.346Z,10.43
2019-02-26T03:56:12.538Z,11.77
2019-02-26T03:58:43.076Z,14.00
2019-02-26T04:01:18.312Z,13.67
2019-02-26T04:03:51.015Z,16.60
2019-02-26T04:06:22.640Z,12.07
2019-02-26T04:08:55.995Z,13.80
2019-02-26T04:11:27.820Z,12.67
2019-02-26T04:13:59.609Z,11.47
2019-02-26T04:16:32.467Z,11.20
2019-02-26T04:19:08.906Z,14.83
2019-02-26T04:22:27.135Z,12.50
2019-02-26T04:25:35.482Z,18.53
2019-02-26T04:28:30.673Z,14.83
2019-02-26T04:31:41.581Z,13.50
2019-02-26T04:34:59.202Z,13.83
2019-02-26T04:38:07.505Z,13.13
2019-02-26T04:41:26.434Z,11.50
2019-02-26T04:45:05.178Z,9.07
2019-02-26T04:47:36.141Z,9.90
2019-02-26T04:50:09.874Z,7.83
2019-02-26T04:52:43.494Z,9.70
2019-02-26T04:55:16.583Z,17.07
2019-02-26T04:57:51.008Z,14.97
2019-02-26T05:00:23.522Z,15.80
2019-02-26T05:02:55.334Z,13.27
2019-02-26T05:05:31.972Z,14.40
2019-02-26T05:08:07.641Z,8.37
2019-02-26T05:10:38.484Z,10.80
2019-02-26T05:13:11.227Z,13.60
2019-02-26T05:15:43.632Z,11.37
2019-02-26T05:18:20.320Z,9.80
2019-02-26T05:20:52.238Z,10.77
2019-02-26T05:23:25.900Z,13.13
2019-02-26T05:26:02.954Z,14.73
2019-02-26T05:28:37.653Z,13.47
2019-02-26T05:31:09.163Z,13.87
2019-02-26T05:33:42.299Z,11.67
2019-02-26T05:36:16.460Z,12.30
2019-02-26T05:38:49.283Z,13.20
2019-02-26T05:41:21.058Z,15.30
2019-02-26T05:43:57.849Z,17.07
2019-02-26T05:46:29.923Z,12.93
2019-02-26T05:49:06.815Z,16.60
2019-02-26T05:51:38.198Z,12.80
2019-02-26T05:54:12.261Z,13.83
2019-02-26T05:56:46.140Z,13.67
2019-02-26T05:59:21.718Z,13.93
2019-02-26T06:01:55.940Z,13.07
2019-02-26T06:04:31.731Z,17.23
2019-02-26T06:07:04.696Z,14.07
2019-02-26T06:09:38.039Z,13.57
2019-02-26T06:12:09.698Z,13.13
2019-02-26T06:14:41.356Z,15.27
2019-02-26T06:17:17.209Z,16.93
2019-02-26T06:19:50.315Z,15.63
2019-02-26T06:22:26.028Z,14.13
2019-02-26T06:25:00.307Z,15.50
2019-02-26T06:27:32.439Z,15.90
2019-02-26T06:30:06.544Z,16.73
2019-02-26T06:32:44.661Z,22.80
2019-02-26T06:35:19.606Z,13.00
2019-02-26T06:37:52.430Z,16.83
2019-02-26T06:40:24.329Z,10.87
2019-02-26T06:42:55.973Z,14.80
2019-02-26T06:45:27.634Z,12.40
2019-02-26T06:47:59.251Z,13.73
2019-02-26T06:50:34.088Z,16.00
2019-02-26T06:53:08.529Z,17.60
2019-02-26T06:55:39.914Z,18.40
2019-02-26T06:58:31.873Z,13.00
2019-02-26T07:01:03.774Z,14.13
2019-02-26T07:03:35.392Z,16.50
2019-02-26T07:06:07.337Z,14.53
2019-02-26T07:08:39.391Z,16.67
2019-02-26T07:11:11.107Z,16.07
2019-02-26T07:13:43.870Z,22.47
2019-02-26T07:16:18.043Z,13.23
2019-02-26T07:18:49.529Z,14.97
2019-02-26T07:21:21.590Z,15.00
2019-02-26T07:23:54.613Z,11.50
2019-02-26T07:26:26.642Z,19.20
2019-02-26T07:28:58.901Z,14.43
2019-02-26T07:31:28.825Z,16.00
2019-02-26T07:34:03.152Z,13.57
2019-02-26T07:36:35.203Z,16.10
2019-02-26T07:39:13.084Z,18.00
2019-02-26T07:41:44.660Z,17.60
2019-02-26T07:44:19.627Z,19.10
2019-02-26T07:46:51.897Z,20.70
2019-02-26T07:49:23.554Z,16.77
2019-02-26T07:51:58.268Z,15.90
2019-02-26T07:54:30.020Z,15.37
2019-02-26T07:57:02.858Z,15.70
2019-02-26T07:59:36.829Z,19.87
2019-02-26T08:02:08.876Z,17.73
2019-02-26T08:04:43.509Z,14.90
2019-02-26T08:07:14.862Z,16.17
2019-02-26T08:09:47.016Z,12.63
2019-02-26T08:12:18.634Z,18.30
2019-02-26T08:14:50.322Z,16.63
2019-02-26T08:17:21.945Z,14.13
2019-02-26T08:19:53.580Z,14.27
2019-02-26T08:22:27.543Z,11.60
2019-02-26T08:25:00.545Z,14.43
2019-02-26T08:27:33.861Z,13.03
2019-02-26T08:30:14.478Z,12.63
2019-02-26T08:32:48.384Z,11.90
2019-02-26T08:35:20.741Z,12.53
2019-02-26T08:37:52.529Z,16.83
2019-02-26T08:40:25.530Z,19.20
2019-02-26T08:43:02.419Z,12.27
2019-02-26T08:45:34.094Z,11.10
2019-02-26T08:48:08.513Z,14.43
2019-02-26T08:50:44.497Z,20.30
2019-02-26T08:53:17.251Z,13.60
2019-02-26T08:55:53.619Z,20.53
2019-02-26T08:58:28.059Z,21.93
2019-02-26T09:00:59.152Z,35.60
2019-02-26T09:03:40.147Z,23.90
2019-02-26T09:06:12.814Z,23.43
2019-02-26T09:08:43.020Z,28.13
2019-02-26T09:11:17.272Z,20.50
2019-02-26T09:13:49.048Z,16.73
2019-02-26T09:16:22.301Z,14.07
2019-02-26T09:18:54.183Z,17.47
2019-02-26T09:21:25.922Z,13.40
2019-02-26T09:23:59.497Z,19.87
2019-02-26T09:26:31.307Z,15.37
2019-02-26T09:29:03.644Z,16.27
2019-02-26T09:31:35.305Z,21.27
2019-02-26T09:34:06.915Z,17.60
2019-02-26T09:36:38.675Z,25.20
2019-02-26T09:39:10.801Z,14.53
2019-02-26T09:41:45.533Z,15.73
2019-02-26T09:44:17.351Z,13.90
2019-02-26T09:46:49.019Z,13.90
2019-02-26T09:49:24.586Z,15.73
2019-02-26T09:51:56.823Z,16.00
2019-02-26T09:54:29.860Z,19.33
2019-02-26T09:57:01.941Z,14.00
2019-02-26T09:59:35.770Z,16.83
2019-02-26T10:02:07.020Z,17.63
2019-02-26T10:04:38.803Z,13.27
2019-02-26T10:07:12.518Z,13.93
2019-02-26T10:09:46.494Z,12.60
2019-02-26T10:12:18.682Z,13.87
2019-02-26T10:14:52.329Z,16.20
2019-02-26T10:17:25.027Z,14.83
2019-02-26T10:19:56.965Z,12.77
2019-02-26T10:22:33.311Z,13.77
2019-02-26T10:25:03.626Z,13.77
2019-02-26T10:27:36.163Z,9.60
2019-02-26T10:30:11.238Z,13.47
2019-02-26T10:32:41.087Z,11.40
2019-02-26T10:35:18.507Z,15.43
2019-02-26T10:37:52.555Z,14.77
2019-02-26T10:40:34.298Z,15.37
2019-02-26T10:42:57.665Z,14.57
2019-02-26T10:45:29.834Z,17.10
2019-02-26T10:48:01.863Z,19.53
2019-02-26T10:50:33.591Z,14.30
2019-02-26T10:53:09.579Z,18.53
2019-02-26T10:55:41.803Z,18.13
2019-02-26T10:58:13.837Z,17.43
2019-02-26T11:00:47.117Z,21.10
2019-02-26T11:03:20.244Z,15.77
2019-02-26T11:05:52.505Z,16.00
2019-02-26T11:08:26.758Z,15.90
2019-02-26T11:10:57.671Z,16.03
2019-02-26T11:13:29.352Z,12.50
2019-02-26T11:16:02.986Z,13.93
2019-02-26T11:18:37.865Z,14.03
2019-02-26T11:21:12.390Z,13.93
2019-02-26T11:23:46.512Z,13.90
2019-02-26T11:26:18.911Z,15.27
2019-02-26T11:28:52.154Z,12.97
2019-02-26T11:31:25.342Z,16.00
2019-02-26T11:33:57.303Z,14.83
2019-02-26T11:36:31.225Z,13.57
2019-02-26T11:39:04.265Z,13.33
2019-02-26T11:41:35.986Z,12.33
2019-02-26T11:44:12.526Z,14.73
2019-02-26T11:46:41.436Z,15.00
2019-02-26T11:49:16.894Z,12.40
2019-02-26T11:51:49.616Z,9.40
2019-02-26T11:54:22.448Z,8.73
2019-02-26T11:56:54.201Z,10.23
2019-02-26T11:59:26.077Z,11.07
2019-02-26T12:01:59.108Z,11.30
2019-02-26T12:04:33.346Z,9.70
2019-02-26T12:07:07.422Z,12.20
2019-02-26T12:09:40.777Z,12.33
2019-02-26T12:12:12.662Z,14.13
2019-02-26T12:14:46.660Z,11.30
2019-02-26T12:17:17.896Z,11.90
2019-02-26T12:19:51.475Z,10.97
2019-02-26T12:22:25.214Z,16.20
2019-02-26T12:24:58.774Z,10.10
2019-02-26T12:27:32.519Z,11.23
2019-02-26T12:30:13.348Z,12.00
2019-02-26T12:32:47.263Z,11.80
2019-02-26T12:35:21.324Z,9.90
2019-02-26T12:37:55.882Z,9.53
2019-02-26T12:40:28.050Z,10.60
2019-02-26T12:43:02.017Z,10.03
2019-02-26T12:45:38.641Z,12.60
2019-02-26T12:48:10.285Z,9.97
2019-02-26T12:50:42.628Z,11.47
2019-02-26T12:53:17.205Z,12.03
2019-02-26T12:55:47.848Z,10.07
2019-02-26T12:58:21.355Z,8.70
2019-02-26T13:00:53.309Z,8.27
2019-02-26T13:03:25.129Z,11.20
2019-02-26T13:05:57.527Z,12.13
2019-02-26T13:08:30.367Z,11.60
2019-02-26T13:11:02.072Z,10.63
2019-02-26T13:13:37.138Z,9.37
2019-02-26T13:16:08.827Z,8.90
2019-02-26T13:18:41.810Z,9.87
2019-02-26T13:21:17.234Z,9.40
2019-02-26T13:23:49.068Z,11.30
2019-02-26T13:26:22.521Z,8.70
2019-02-26T13:28:56.076Z,10.90
2019-02-26T13:31:26.602Z,12.13
2019-02-26T13:33:58.393Z,10.43
2019-02-26T13:36:30.825Z,9.00
2019-02-26T13:39:05.469Z,7.67
2019-02-26T13:41:39.958Z,9.50
2019-02-26T13:44:16.827Z,9.50
2019-02-26T13:46:50.224Z,12.30
2019-02-26T13:49:23.569Z,11.07
2019-02-26T13:52:01.930Z,9.20
2019-02-26T13:54:36.041Z,10.97
2019-02-26T13:57:09.252Z,9.37
2019-02-26T13:59:40.931Z,9.13
2019-02-26T14:02:12.839Z,7.10
2019-02-26T14:04:44.541Z,9.00
2019-02-26T14:07:16.696Z,14.53
2019-02-26T14:09:48.483Z,7.33
2019-02-26T14:12:21.846Z,8.70
2019-02-26T14:14:55.143Z,11.00
2019-02-26T14:17:28.497Z,10.70
2019-02-26T14:20:00.365Z,11.20
2019-02-26T14:22:32.052Z,9.33
2019-02-26T14:25:04.037Z,14.63
2019-02-26T14:27:37.321Z,11.87
2019-02-26T14:30:11.581Z,10.63
2019-02-26T14:32:43.575Z,8.73
2019-02-26T14:35:17.793Z,9.20
2019-02-26T14:37:50.812Z,13.53
2019-02-26T14:40:24.223Z,8.27
2019-02-26T14:42:58.426Z,6.40
2019-02-26T14:45:30.172Z,6.97
2019-02-26T14:48:02.373Z,8.17
2019-02-26T14:50:34.139Z,9.07
2019-02-26T14:53:07.991Z,8.10
2019-02-26T14:55:42.015Z,11.20
2019-02-26T14:58:13.737Z,6.27
2019-02-26T15:00:45.399Z,7.30
2019-02-26T15:03:17.373Z,6.57
2019-02-26T15:05:49.172Z,7.27
2019-02-26T15:08:22.965Z,6.00
2019-02-26T15:10:55.359Z,7.97
2019-02-26T15:13:27.344Z,11.87
2019-02-26T15:15:59.218Z,6.50
2019-02-26T15:18:31.012Z,8.40
2019-02-26T15:21:02.872Z,11.80
2019-02-26T15:23:34.527Z,6.03
2019-02-26T15:26:06.704Z,13.87
2019-02-26T15:28:39.625Z,6.33
2019-02-26T15:31:14.067Z,5.90
2019-02-26T15:33:43.305Z,7.33
2019-02-26T15:36:15.026Z,5.90
2019-02-26T15:38:46.848Z,7.70
2019-02-26T15:41:18.741Z,6.00
2019-02-26T15:43:50.380Z,6.20
2019-02-26T15:46:22.110Z,5.17
2019-02-26T15:48:53.769Z,6.17
2019-02-26T15:51:25.490Z,5.67
2019-02-26T15:54:00.368Z,5.63
2019-02-26T15:56:35.263Z,7.20
2019-02-26T15:59:07.299Z,5.43
2019-02-26T16:01:40.998Z,5.60
2019-02-26T16:04:12.760Z,8.83
2019-02-26T16:06:45.535Z,7.10
2019-02-26T16:09:17.495Z,6.10
2019-02-26T16:11:50.066Z,8.13
2019-02-26T16:14:24.068Z,9.93
2019-02-26T16:16:55.900Z,5.87
2019-02-26T16:19:27.743Z,8.20
2019-02-26T16:22:00.474Z,8.30
2019-02-26T16:24:33.388Z,7.10
2019-02-26T16:27:05.068Z,9.80
2019-02-26T16:29:37.900Z,7.60
2019-02-26T16:32:10.773Z,7.90
2019-02-26T16:34:43.763Z,7.27
2019-02-26T16:37:16.627Z,8.13
2019-02-26T16:39:48.305Z,14.87
2019-02-26T16:42:20.449Z,12.57
2019-02-26T16:44:52.753Z,8.63
2019-02-26T16:47:25.796Z,9.57
2019-02-26T16:49:58.646Z,7.50
2019-02-26T16:52:31.407Z,9.40
2019-02-26T16:55:03.197Z,7.03
2019-02-26T16:57:37.530Z,7.17
2019-02-26T17:00:15.653Z,8.23
2019-02-26T17:02:46.360Z,9.50
2019-02-26T17:05:18.106Z,8.73
2019-02-26T17:07:49.743Z,15.17
2019-02-26T17:10:21.915Z,10.77
2019-02-26T17:12:55.266Z,9.17
2019-02-26T17:15:30.262Z,13.17
2019-02-26T17:18:03.220Z,6.80
2019-02-26T17:20:35.318Z,8.87
2019-02-26T17:23:07.257Z,10.03
2019-02-26T17:25:39.052Z,15.10
2019-02-26T17:28:12.402Z,11.00
2019-02-26T17:30:51.646Z,10.90
2019-02-26T17:33:23.333Z,10.50
2019-02-26T17:35:55.152Z,10.83
2019-02-26T17:38:27.170Z,10.80
2019-02-26T17:40:59.133Z,11.20
2019-02-26T17:43:32.856Z,9.80
2019-02-26T17:46:05.276Z,10.97
2019-02-26T17:48:43.392Z,12.63
2019-02-26T17:51:10.827Z,11.13
2019-02-26T17:53:42.595Z,17.87
2019-02-26T17:56:14.416Z,10.77
2019-02-26T17:58:49.467Z,9.13
2019-02-26T18:01:22.485Z,9.40
2019-02-26T18:03:54.548Z,11.47
2019-02-26T18:06:26.295Z,9.93
2019-02-26T18:08:58.778Z,10.50
2019-02-26T18:11:30.853Z,9.87
2019-02-26T18:14:02.631Z,8.73
2019-02-26T18:16:34.565Z,10.60
2019-02-26T18:19:07.286Z,8.73
2019-02-26T18:21:39.110Z,13.43
2019-02-26T18:24:10.804Z,14.27
2019-02-26T18:26:43.860Z,10.47
2019-02-26T18:29:20.425Z,8.77
2019-02-26T18:31:53.426Z,9.80
2019-02-26T18:34:31.027Z,5.67
2019-02-26T18:37:03.037Z,10.20
2019-02-26T18:39:35.922Z,7.43
2019-02-26T18:42:08.370Z,6.37
2019-02-26T18:44:40.207Z,8.37
2019-02-26T18:47:12.103Z,7.30
2019-02-26T18:49:56.994Z,7.50
2019-02-26T18:52:29.053Z,8.10
2019-02-26T18:55:01.019Z,10.73
2019-02-26T18:57:32.896Z,9.10
2019-02-26T19:00:05.714Z,7.00
2019-02-26T19:02:38.804Z,9.63
2019-02-26T19:05:11.972Z,11.10
2019-02-26T19:07:44.333Z,10.33
2019-02-26T19:10:20.746Z,9.20
2019-02-26T19:12:53.007Z,8.77
2019-02-26T19:15:25.214Z,10.30
2019-02-26T19:17:57.241Z,8.73
2019-02-26T19:20:30.945Z,10.30
2019-02-26T19:23:02.598Z,7.03
2019-02-26T19:25:34.793Z,6.40
2019-02-26T19:28:09.827Z,6.90
2019-02-26T19:30:46.287Z,7.70
2019-02-26T19:33:21.703Z,8.60
2019-02-26T19:35:52.536Z,12.60
2019-02-26T19:38:27.266Z,10.53
2019-02-26T19:40:59.670Z,7.40
2019-02-26T19:43:31.472Z,8.70
2019-02-26T19:46:03.247Z,10.07
2019-02-26T19:48:35.297Z,9.80
2019-02-26T19:51:07.266Z,9.60
2019-02-26T19:53:39.163Z,8.30
2019-02-26T19:56:11.594Z,7.00
2019-02-26T19:58:43.431Z,6.63
2019-02-26T20:01:15.569Z,12.73
2019-02-26T20:03:47.364Z,14.73
2019-02-26T20:06:23.267Z,8.70
2019-02-26T20:08:53.993Z,14.63
2019-02-26T20:11:26.267Z,10.30
2019-02-26T20:14:04.479Z,8.43
2019-02-26T20:16:31.616Z,12.50
2019-02-26T20:19:03.461Z,8.80
2019-02-26T20:21:35.499Z,11.10
2019-02-26T20:24:07.399Z,13.83
2019-02-26T20:26:39.427Z,10.17
2019-02-26T20:29:11.794Z,8.27
2019-02-26T20:31:43.835Z,8.50
2019-02-26T20:34:18.077Z,6.40
2019-02-26T20:36:51.848Z,11.97
2019-02-26T20:39:23.554Z,10.00
2019-02-26T20:41:55.699Z,10.83
2019-02-26T20:44:28.329Z,7.00
2019-02-26T20:47:00.095Z,11.23
2019-02-26T20:49:32.009Z,9.90
2019-02-26T20:52:03.756Z,7.93
2019-02-26T20:54:35.849Z,8.50
2019-02-26T20:57:07.567Z,8.50
2019-02-26T20:59:40.422Z,12.30
2019-02-26T21:02:12.120Z,8.47
2019-02-26T21:04:43.987Z,7.73
2019-02-26T21:07:15.828Z,11.20
2019-02-26T21:09:47.580Z,8.03
2019-02-26T21:12:19.487Z,7.20
2019-02-26T21:14:51.806Z,7.77
2019-02-26T21:17:25.853Z,7.63
2019-02-26T21:19:57.474Z,7.20
2019-02-26T21:22:29.218Z,7.13
2019-02-26T21:25:02.393Z,7.73
2019-02-26T21:27:36.811Z,7.13
2019-02-26T21:30:11.820Z,8.63
2019-02-26T21:32:39.013Z,5.33
2019-02-26T21:35:11.545Z,7.80
2019-02-26T21:37:43.597Z,7.70
2019-02-26T21:40:17.096Z,10.90
2019-02-26T21:42:48.968Z,10.50
2019-02-26T21:45:23.706Z,6.60
2019-02-26T21:47:55.479Z,11.43
2019-02-26T21:50:29.837Z,7.80
2019-02-26T21:53:03.204Z,7.87
2019-02-26T21:55:43.891Z,6.70
2019-02-26T21:58:09.269Z,8.63
2019-02-26T22:00:41.627Z,8.83
2019-02-26T22:03:13.353Z,6.63
2019-02-26T22:05:45.148Z,7.13
2019-02-26T22:08:18.592Z,7.10
2019-02-26T22:10:50.437Z,9.63
2019-02-26T22:13:23.426Z,15.83
2019-02-26T22:15:57.177Z,17.93
2019-02-26T22:18:34.009Z,9.97
2019-02-26T22:21:03.120Z,8.30
2019-02-26T22:23:34.949Z,14.87
2019-02-26T22:26:08.230Z,13.07
2019-02-26T22:28:42.666Z,11.80
2019-02-26T22:31:14.593Z,7.97
2019-02-26T22:33:50.013Z,11.10
2019-02-26T22:36:21.682Z,5.90
2019-02-26T22:38:53.836Z,8.43
2019-02-26T22:41:28.186Z,6.37
2019-02-26T22:43:59.956Z,6.90
2019-02-26T22:46:33.899Z,6.90
2019-02-26T22:49:07.079Z,10.50
2019-02-26T22:51:38.725Z,7.50
2019-02-26T22:54:11.989Z,7.60
2019-02-26T22:56:43.740Z,7.37
2019-02-26T22:59:15.591Z,8.70
2019-02-26T23:01:48.184Z,8.27
2019-02-26T23:04:20.456Z,5.60
2019-02-26T23:06:52.074Z,9.40
2019-02-26T23:09:27.894Z,9.00
2019-02-26T23:12:00.017Z,8.70
2019-02-26T23:14:31.688Z,6.40
2019-02-26T23:17:04.984Z,9.10
2019-02-26T23:19:37.448Z,9.40
2019-02-26T23:22:10.327Z,9.50
2019-02-26T23:24:44.454Z,7.10
2019-02-26T23:27:16.210Z,7.50
2019-02-26T23:29:47.830Z,10.40
2019-02-26T23:32:20.626Z,11.80
2019-02-26T23:35:08.881Z,11.70
2019-02-26T23:37:40.674Z,10.27
2019-02-26T23:40:14.277Z,10.43
2019-02-26T23:42:46.115Z,7.63
2019-02-26T23:45:17.864Z,11.93
2019-02-26T23:47:49.743Z,11.23
2019-02-26T23:50:23.296Z,11.73
2019-02-26T23:52:54.922Z,17.70
2019-02-26T23:55:27.713Z,7.53
2019-02-26T23:57:59.294Z,9.53
